Terminal Aerodrome Forecast
Issued by NWS Detroit/Pontiac, MI

Home | Current Version | Previous Version | Text Only | Print | Product List | Glossary On
Versions: 1 2 3 4 5 6 7 8 9 10 11 12 13 14 15 16 17 18 19 20 21 22 23 24 25 26 27 28 29 30 31 32 33
000
FTUS43 KDTX 241120
TAFFNT
TAF
KFNT 241120Z 2412/2512 23005KT P6SM OVC250
     FM241400 26011KT P6SM BKN120
     FM250000 02011G19KT P6SM BKN024 OVC040=

USA.gov is the U.S. government's official web portal to all federal, state and local government web resources and services.